createdAt,value
2022-10-18T00:00:27.650Z,100144.31
2022-10-18T00:02:58.325Z,100153.69
2022-10-18T00:05:29.026Z,100155.25
2022-10-18T00:07:59.872Z,100152.77
2022-10-18T00:10:30.486Z,100157.48
2022-10-18T00:13:01.246Z,100157.73
2022-10-18T00:15:32.075Z,100162.13
2022-10-18T00:18:03.311Z,100160.95
2022-10-18T00:20:34.273Z,100162.29
2022-10-18T00:23:04.885Z,100162.05
2022-10-18T00:25:35.527Z,100159.45
2022-10-18T00:28:06.410Z,100157.15
2022-10-18T00:30:37.537Z,100156.52
2022-10-18T00:33:08.577Z,100151.04
2022-10-18T00:35:39.517Z,100151.42
2022-10-18T00:38:10.230Z,100146.59
2022-10-18T00:40:40.931Z,100143.89
2022-10-18T00:43:17.220Z,100147.46
2022-10-18T00:45:47.848Z,100151.44
2022-10-18T00:48:20.866Z,100149.00
2022-10-18T00:50:53.540Z,100146.39
2022-10-18T00:53:25.691Z,100143.75
2022-10-18T00:55:57.973Z,100139.41
2022-10-18T00:58:28.618Z,100135.13
2022-10-18T01:00:59.529Z,100134.24
2022-10-18T01:03:30.686Z,100133.81
2022-10-18T01:06:01.533Z,100132.72
2022-10-18T01:08:44.571Z,100131.41
2022-10-18T01:11:34.697Z,100125.17
2022-10-18T01:14:22.586Z,100122.98
2022-10-18T01:17:02.150Z,100116.90
2022-10-18T01:19:47.708Z,100110.77
2022-10-18T01:22:23.140Z,100111.18
2022-10-18T01:25:08.146Z,100112.45
2022-10-18T01:27:54.301Z,100114.38
2022-10-18T01:30:46.750Z,100118.62
2022-10-18T01:33:26.365Z,100119.63
2022-10-18T01:35:57.882Z,100117.95
2022-10-18T01:38:31.033Z,100112.23
2022-10-18T01:41:04.289Z,100106.66
2022-10-18T01:43:36.507Z,100102.72
2022-10-18T01:46:09.226Z,100099.51
2022-10-18T01:48:40.540Z,100099.65
2022-10-18T01:51:12.289Z,100099.55
2022-10-18T01:53:43.294Z,100099.64
2022-10-18T01:56:36.325Z,100100.73
2022-10-18T01:59:18.588Z,100098.23
2022-10-18T02:02:01.670Z,100093.46
2022-10-18T02:04:42.085Z,100091.78
2022-10-18T02:07:24.740Z,100094.56
2022-10-18T02:10:04.690Z,100094.39
2022-10-18T02:12:37.303Z,100096.55
2022-10-18T02:15:11.364Z,100094.15
2022-10-18T02:17:45.303Z,100097.46
2022-10-18T02:20:20.660Z,100092.84
2022-10-18T02:22:53.156Z,100095.84
2022-10-18T02:25:28.575Z,100097.08
2022-10-18T02:27:59.748Z,100100.01
2022-10-18T02:30:36.753Z,100099.27
2022-10-18T02:33:14.005Z,100097.09
2022-10-18T02:35:52.314Z,100095.45
2022-10-18T02:38:25.521Z,100095.73
2022-10-18T02:40:56.465Z,100095.01
2022-10-18T02:43:28.121Z,100094.08
2022-10-18T02:45:59.067Z,100095.52
2022-10-18T02:48:29.780Z,100100.36
2022-10-18T02:51:00.553Z,100107.01
2022-10-18T02:53:31.399Z,100112.58
2022-10-18T02:56:03.304Z,100107.20
2022-10-18T02:58:34.476Z,100109.71
2022-10-18T03:01:05.589Z,100111.91
2022-10-18T03:03:36.278Z,100111.74
2022-10-18T03:06:07.356Z,100109.22
2022-10-18T03:08:38.983Z,100107.36
2022-10-18T03:11:09.731Z,100107.59
2022-10-18T03:13:40.359Z,100108.52
2022-10-18T03:16:11.620Z,100113.41
2022-10-18T03:18:42.736Z,100107.93
2022-10-18T03:21:13.387Z,100110.20
2022-10-18T03:23:45.109Z,100105.28
2022-10-18T03:26:15.787Z,100108.82
2022-10-18T03:28:46.707Z,100107.72
2022-10-18T03:31:17.681Z,100116.01
2022-10-18T03:33:49.117Z,100109.66
2022-10-18T03:36:19.779Z,100108.09
2022-10-18T03:38:50.434Z,100108.65
2022-10-18T03:41:21.325Z,100107.38
2022-10-18T03:43:52.078Z,100112.39
2022-10-18T03:46:23.019Z,100113.36
2022-10-18T03:48:53.586Z,100112.23
2022-10-18T03:51:24.507Z,100106.12
2022-10-18T03:53:55.232Z,100106.27
2022-10-18T03:56:26.296Z,100109.59
2022-10-18T03:58:57.912Z,100108.19
2022-10-18T04:01:28.818Z,100107.31
2022-10-18T04:03:59.539Z,100105.46
2022-10-18T04:06:30.304Z,100101.23
2022-10-18T04:09:03.172Z,100098.51
2022-10-18T04:11:36.130Z,100094.67
2022-10-18T04:14:06.746Z,100086.88
2022-10-18T04:16:37.818Z,100090.52
2022-10-18T04:19:08.538Z,100085.09
2022-10-18T04:21:39.982Z,100082.30
2022-10-18T04:24:10.667Z,100079.23
2022-10-18T04:26:41.377Z,100077.17
2022-10-18T04:29:12.313Z,100076.23
2022-10-18T04:31:43.159Z,100081.60
2022-10-18T04:34:14.205Z,100078.19
2022-10-18T04:36:44.836Z,100079.31
2022-10-18T04:39:15.467Z,100084.55
2022-10-18T04:41:46.317Z,100084.17
2022-10-18T04:44:17.279Z,100085.32
2022-10-18T04:46:48.059Z,100087.17
2022-10-18T04:49:18.837Z,100086.98
2022-10-18T04:51:49.485Z,100087.04
2022-10-18T04:54:21.898Z,100079.94
2022-10-18T04:56:54.531Z,100081.06
2022-10-18T04:59:25.634Z,100085.09
2022-10-18T05:01:56.433Z,100085.79
2022-10-18T05:04:27.310Z,100087.17
2022-10-18T05:06:57.972Z,100083.02
2022-10-18T05:09:28.995Z,100082.20
2022-10-18T05:11:59.777Z,100087.90
2022-10-18T05:14:30.706Z,100092.80
2022-10-18T05:17:01.342Z,100092.90
2022-10-18T05:19:32.402Z,100092.98
2022-10-18T05:22:03.036Z,100091.99
2022-10-18T05:24:33.880Z,100093.10
2022-10-18T05:27:04.690Z,100089.23
2022-10-18T05:29:35.329Z,100083.18
2022-10-18T05:32:06.313Z,100085.73
2022-10-18T05:34:37.445Z,100086.83
2022-10-18T05:37:08.082Z,100089.89
2022-10-18T05:39:39.746Z,100093.61
2022-10-18T05:42:10.649Z,100097.71
2022-10-18T05:44:41.544Z,100095.90
2022-10-18T05:47:12.250Z,100093.66
2022-10-18T05:49:43.100Z,100089.98
2022-10-18T05:52:13.777Z,100091.39
2022-10-18T05:54:44.626Z,100090.06
2022-10-18T05:57:15.312Z,100082.05
2022-10-18T05:59:46.561Z,100081.88
2022-10-18T06:02:17.337Z,100083.05
2022-10-18T06:04:48.141Z,100083.08
2022-10-18T06:07:19.296Z,100087.11
2022-10-18T06:09:50.128Z,100092.30
2022-10-18T06:12:20.747Z,100101.17
2022-10-18T06:14:51.574Z,100107.67
2022-10-18T06:17:22.445Z,100110.56
2022-10-18T06:19:53.387Z,100108.23
2022-10-18T06:22:24.264Z,100112.36
2022-10-18T06:24:57.201Z,100113.63
2022-10-18T06:27:28.380Z,100107.64
2022-10-18T06:29:59.485Z,100111.20
2022-10-18T06:32:30.251Z,100112.66
2022-10-18T06:35:00.980Z,100111.33
2022-10-18T06:37:35.560Z,100117.27
2022-10-18T06:40:08.165Z,100121.95
2022-10-18T06:42:38.834Z,100122.63
2022-10-18T06:45:11.518Z,100115.84
2022-10-18T06:47:42.187Z,100114.30
2022-10-18T06:50:13.296Z,100115.02
2022-10-18T06:52:43.943Z,100109.12
2022-10-18T06:55:14.878Z,100104.77
2022-10-18T06:57:45.526Z,100110.14
2022-10-18T07:00:18.105Z,100100.94
2022-10-18T07:02:48.828Z,100114.45
2022-10-18T07:05:19.791Z,100111.21
2022-10-18T07:07:54.199Z,100114.55
2022-10-18T07:10:27.411Z,100117.16
2022-10-18T07:13:13.548Z,100122.05
2022-10-18T07:15:49.582Z,100118.14
2022-10-18T07:18:20.417Z,100117.54
2022-10-18T07:20:51.065Z,100115.45
2022-10-18T07:23:24.878Z,100115.25
2022-10-18T07:25:55.765Z,100114.15
2022-10-18T07:28:26.538Z,100118.04
2022-10-18T07:30:59.452Z,100120.70
2022-10-18T07:33:33.806Z,100124.97
2022-10-18T07:36:06.109Z,100134.98
2022-10-18T07:38:36.806Z,100132.05
2022-10-18T07:41:09.447Z,100126.05
2022-10-18T07:43:42.562Z,100130.49
2022-10-18T07:46:13.998Z,100126.36
2022-10-18T07:48:45.104Z,100124.31
2022-10-18T07:51:16.710Z,100116.80
2022-10-18T07:53:47.331Z,100117.93
2022-10-18T07:56:21.061Z,100118.10
2022-10-18T07:58:54.523Z,100114.54
2022-10-18T08:01:26.784Z,100113.08
2022-10-18T08:04:02.109Z,100106.27
2022-10-18T08:06:37.027Z,100107.17
2022-10-18T08:09:08.290Z,100106.27
2022-10-18T08:11:39.884Z,100105.50
2022-10-18T08:14:10.501Z,100100.09
2022-10-18T08:16:41.226Z,100096.38
2022-10-18T08:19:11.958Z,100091.20
2022-10-18T08:21:43.019Z,100089.50
2022-10-18T08:24:13.846Z,100083.87
2022-10-18T08:26:44.545Z,100083.48
2022-10-18T08:29:23.346Z,100083.81
2022-10-18T08:31:57.005Z,100084.83
2022-10-18T08:34:27.964Z,100085.70
2022-10-18T08:36:58.753Z,100083.34
2022-10-18T08:39:29.839Z,100080.15
2022-10-18T08:42:22.881Z,100081.83
2022-10-18T08:44:55.042Z,100077.02
2022-10-18T08:47:40.118Z,100070.42
2022-10-18T08:50:17.565Z,100069.23
2022-10-18T08:52:54.794Z,100066.71
2022-10-18T08:55:30.982Z,100067.11
2022-10-18T08:58:01.633Z,100069.73
2022-10-18T09:00:38.554Z,100070.75
2022-10-18T09:03:23.200Z,100068.23
2022-10-18T09:05:57.210Z,100069.12
2022-10-18T09:08:49.570Z,100065.52
2022-10-18T09:11:36.619Z,100063.42
2022-10-18T09:14:25.347Z,100059.48
2022-10-18T09:17:05.142Z,100055.47
2022-10-18T09:19:55.116Z,100054.03
2022-10-18T09:22:40.513Z,100049.69
2022-10-18T09:25:21.879Z,100045.27
2022-10-18T09:27:58.088Z,100044.36
2022-10-18T09:30:58.732Z,100042.71
2022-10-18T09:33:40.599Z,100041.38
2022-10-18T09:36:18.854Z,100037.48
2022-10-18T09:38:52.676Z,100035.42
2022-10-18T09:41:27.102Z,100033.67
2022-10-18T09:44:04.303Z,100035.08
2022-10-18T09:46:39.156Z,100033.92
2022-10-18T09:49:16.634Z,100030.58
2022-10-18T09:51:49.922Z,100028.05
2022-10-18T09:54:26.380Z,100026.04
2022-10-18T09:57:03.681Z,100028.63
2022-10-18T09:59:40.942Z,100023.90
2022-10-18T10:02:16.026Z,100021.44
2022-10-18T10:04:47.049Z,100020.75
2022-10-18T10:07:20.781Z,100020.36
2022-10-18T10:09:59.597Z,100017.59
2022-10-18T10:12:33.587Z,100015.25
2022-10-18T10:15:20.779Z,100014.48
2022-10-18T10:18:01.505Z,100017.66
2022-10-18T10:20:38.207Z,100019.93
2022-10-18T10:25:56.817Z,100006.89
2022-10-18T10:28:31.991Z,100005.34
2022-10-18T10:31:20.478Z,100005.08
2022-10-18T10:33:59.040Z,100000.14
2022-10-18T10:36:29.948Z,99993.47
2022-10-18T10:39:12.354Z,99993.73
2022-10-18T10:41:43.571Z,99994.45
2022-10-18T10:44:20.130Z,99989.82
2022-10-18T10:46:51.626Z,99982.31
2022-10-18T10:49:41.275Z,99979.31
2022-10-18T10:52:37.270Z,99976.30
2022-10-18T10:55:34.270Z,99974.25
2022-10-18T10:58:06.324Z,99966.90
2022-10-18T11:00:44.632Z,99961.20
2022-10-18T11:03:31.435Z,99957.37
2022-10-18T11:06:02.619Z,99953.95
2022-10-18T11:08:39.433Z,99948.63
2022-10-18T11:11:23.025Z,99946.23
2022-10-18T11:14:13.536Z,99941.79
2022-10-18T11:16:57.675Z,99940.78
2022-10-18T11:19:41.406Z,99937.58
2022-10-18T11:22:18.334Z,99931.74
2022-10-18T11:24:49.275Z,99935.36
2022-10-18T11:27:26.354Z,99931.89
2022-10-18T11:30:12.538Z,99937.58
2022-10-18T11:32:50.967Z,99935.23
2022-10-18T11:35:40.576Z,99929.23
2022-10-18T11:38:23.816Z,99913.92
2022-10-18T11:41:06.331Z,99910.19
2022-10-18T11:44:01.765Z,99909.41
2022-10-18T11:46:51.109Z,99901.33
2022-10-18T11:49:39.039Z,99899.19
2022-10-18T11:52:16.969Z,99898.55
2022-10-18T11:55:06.216Z,99894.54
2022-10-18T11:57:46.328Z,99893.80
2022-10-18T12:00:33.532Z,99892.91
2022-10-18T12:03:19.777Z,99891.17
2022-10-18T12:05:52.787Z,99882.89
2022-10-18T12:08:29.674Z,99883.20
2022-10-18T12:11:07.211Z,99876.73
2022-10-18T12:13:44.435Z,99878.98
2022-10-18T12:16:16.591Z,99873.70
2022-10-18T12:18:55.266Z,99871.02
2022-10-18T12:21:30.432Z,99872.00
2022-10-18T12:24:03.954Z,99869.04
2022-10-18T12:26:33.700Z,99863.49
2022-10-18T12:29:18.517Z,99863.85
2022-10-18T12:31:54.392Z,99864.94
2022-10-18T12:34:37.058Z,99860.70
2022-10-18T12:37:39.375Z,99859.70
2022-10-18T12:40:18.603Z,99853.55
2022-10-18T12:42:54.231Z,99849.70
2022-10-18T12:45:35.043Z,99853.41
2022-10-18T12:48:09.062Z,99849.64
2022-10-18T12:50:42.671Z,99839.69
2022-10-18T12:53:26.627Z,99837.34
2022-10-18T12:56:19.876Z,99826.79
2022-10-18T12:58:52.942Z,99822.44
2022-10-18T13:01:25.337Z,99822.77
2022-10-18T13:03:59.172Z,99829.29
2022-10-18T13:07:03.800Z,99825.24
2022-10-18T13:09:36.256Z,99818.96
2022-10-18T13:12:37.484Z,99816.60
2022-10-18T13:15:26.564Z,99815.20
2022-10-18T13:18:07.944Z,99813.14
2022-10-18T13:20:47.714Z,99808.48
2022-10-18T13:23:38.137Z,99808.39
2022-10-18T13:26:26.240Z,99801.27
2022-10-18T13:29:04.101Z,99796.70
2022-10-18T13:31:44.375Z,99794.46
2022-10-18T13:34:33.009Z,99796.03
2022-10-18T13:37:06.527Z,99798.90
2022-10-18T13:39:36.018Z,99789.86
2022-10-18T13:42:32.588Z,99787.70
2022-10-18T13:45:38.220Z,99793.61
2022-10-18T13:48:44.015Z,99785.70
2022-10-18T13:51:29.585Z,99784.42
2022-10-18T13:54:07.392Z,99783.29
2022-10-18T13:57:03.128Z,99784.52
2022-10-18T13:59:58.379Z,99776.08
2022-10-18T14:03:04.172Z,99779.04
2022-10-18T14:05:52.956Z,99771.84
2022-10-18T14:08:30.385Z,99762.20
2022-10-18T14:11:06.090Z,99764.95
2022-10-18T14:13:49.086Z,99766.30
2022-10-18T14:16:35.961Z,99758.45
2022-10-18T14:19:16.137Z,99757.83
2022-10-18T14:21:54.718Z,99756.81
2022-10-18T14:24:28.315Z,99755.65
2022-10-18T14:27:19.943Z,99759.42
2022-10-18T14:29:52.148Z,99758.02
2022-10-18T14:32:28.983Z,99751.80
2022-10-18T14:35:31.623Z,99753.45
2022-10-18T14:37:52.903Z,99750.81
2022-10-18T14:40:33.131Z,99752.38
2022-10-18T14:43:12.355Z,99751.27
2022-10-18T14:45:43.815Z,99745.67
2022-10-18T14:48:22.047Z,99750.85
2022-10-18T14:51:00.561Z,99750.25
2022-10-18T14:53:41.977Z,99752.63
2022-10-18T14:56:24.329Z,99751.13
2022-10-18T14:58:57.502Z,99754.88
2022-10-18T15:01:31.285Z,99759.30
2022-10-18T15:04:12.915Z,99760.98
2022-10-18T15:06:46.843Z,99760.36
2022-10-18T15:09:23.341Z,99766.20
2022-10-18T15:11:57.827Z,99765.33
2022-10-18T15:14:30.692Z,99759.45
2022-10-18T15:17:08.667Z,99754.57
2022-10-18T15:19:42.370Z,99756.02
2022-10-18T15:22:30.669Z,99757.40
2022-10-18T15:25:15.711Z,99751.83
2022-10-18T15:27:49.805Z,99750.61
2022-10-18T15:30:24.258Z,99759.35
2022-10-18T15:32:57.691Z,99750.62
2022-10-18T15:35:31.629Z,99750.41
2022-10-18T15:38:14.371Z,99750.23
2022-10-18T15:40:46.483Z,99751.44
2022-10-18T15:43:40.821Z,99757.41
2022-10-18T15:46:32.782Z,99764.91
2022-10-18T15:49:56.895Z,99762.23
2022-10-18T15:52:39.746Z,99769.25
2022-10-18T15:55:49.033Z,99771.49
2022-10-18T15:58:28.230Z,99777.23
2022-10-18T16:01:01.845Z,99783.64
2022-10-18T16:03:36.390Z,99786.48
2022-10-18T16:06:12.302Z,99788.34
2022-10-18T16:08:47.905Z,99791.98
2022-10-18T16:11:20.821Z,99797.77
2022-10-18T16:13:55.176Z,99796.77
2022-10-18T16:16:30.547Z,99791.32
2022-10-18T16:19:01.494Z,99799.46
2022-10-18T16:21:34.402Z,99799.20
2022-10-18T16:24:06.483Z,99801.64
2022-10-18T16:26:38.342Z,99805.84
2022-10-18T16:29:14.440Z,99818.36
2022-10-18T16:31:46.735Z,99829.19
2022-10-18T16:34:19.130Z,99834.84
2022-10-18T16:36:50.217Z,99830.50
2022-10-18T16:39:22.384Z,99823.66
2022-10-18T16:41:53.553Z,99830.48
2022-10-18T16:44:24.636Z,99843.10
2022-10-18T16:46:56.496Z,99853.86
2022-10-18T16:49:28.770Z,99856.94
2022-10-18T16:52:03.616Z,99864.41
2022-10-18T16:54:35.843Z,99870.55
2022-10-18T16:57:07.102Z,99872.85
2022-10-18T16:59:38.071Z,99875.55
2022-10-18T17:02:11.765Z,99876.00
2022-10-18T17:04:42.846Z,99879.30
2022-10-18T17:07:23.891Z,99885.96
2022-10-18T17:09:54.810Z,99888.16
2022-10-18T17:12:25.893Z,99891.43
2022-10-18T17:14:57.282Z,99896.21
2022-10-18T17:17:28.245Z,99905.42
2022-10-18T17:19:59.465Z,99901.28
2022-10-18T17:22:30.506Z,99900.51
2022-10-18T17:25:02.628Z,99896.04
2022-10-18T17:27:33.900Z,99887.09
2022-10-18T17:30:05.847Z,99882.48
2022-10-18T17:32:37.035Z,99888.20
2022-10-18T17:35:08.959Z,99887.90
2022-10-18T17:37:43.973Z,99883.59
2022-10-18T17:40:17.707Z,99879.58
2022-10-18T17:42:48.637Z,99872.47
2022-10-18T17:45:20.024Z,99878.91
2022-10-18T17:47:51.083Z,99879.18
2022-10-18T17:50:22.510Z,99884.69
2022-10-18T17:52:55.602Z,99894.84
2022-10-18T17:55:27.664Z,99899.58
2022-10-18T17:57:58.770Z,99904.15
2022-10-18T18:00:29.544Z,99908.77
2022-10-18T18:03:01.493Z,99910.64
2022-10-18T18:05:35.676Z,99917.73
2022-10-18T18:08:06.714Z,99919.86
2022-10-18T18:10:37.680Z,99926.09
2022-10-18T18:13:08.463Z,99928.35
2022-10-18T18:15:39.394Z,99929.27
2022-10-18T18:18:10.234Z,99931.34
2022-10-18T18:20:41.086Z,99933.47
2022-10-18T18:23:11.850Z,99934.34
2022-10-18T18:25:43.034Z,99933.15
2022-10-18T18:28:13.943Z,99934.71
2022-10-18T18:30:44.829Z,99935.83
2022-10-18T18:33:15.760Z,99942.09
2022-10-18T18:35:54.783Z,99940.48
2022-10-18T18:38:26.365Z,99937.97
2022-10-18T18:41:07.893Z,99936.80
2022-10-18T18:43:39.930Z,99932.09
2022-10-18T18:46:12.635Z,99928.83
2022-10-18T18:48:43.762Z,99932.48
2022-10-18T18:51:16.427Z,99935.56
2022-10-18T18:53:48.761Z,99932.09
2022-10-18T18:58:59.344Z,99938.74
2022-10-18T19:01:32.104Z,99936.88
2022-10-18T19:04:03.627Z,99942.45
2022-10-18T19:06:36.728Z,99947.56
2022-10-18T19:09:13.258Z,99943.16
2022-10-18T19:11:44.140Z,99948.13
2022-10-18T19:14:14.947Z,99950.72
2022-10-18T19:16:49.293Z,99952.84
2022-10-18T19:19:21.975Z,99957.42
2022-10-18T19:21:55.177Z,99957.96
2022-10-18T19:24:27.334Z,99963.20
2022-10-18T19:26:59.831Z,99962.30
2022-10-18T19:29:32.457Z,99960.49
2022-10-18T19:32:05.879Z,99960.63
2022-10-18T19:34:37.029Z,99963.63
2022-10-18T19:37:09.564Z,99966.16
2022-10-18T19:39:40.579Z,99973.51
2022-10-18T19:42:17.428Z,99975.59
2022-10-18T19:44:51.470Z,99975.61
2022-10-18T19:47:22.355Z,99976.56
2022-10-18T19:49:53.915Z,99978.20
2022-10-18T19:52:24.584Z,99976.65
2022-10-18T19:54:55.265Z,99975.46
2022-10-18T19:57:26.593Z,99978.02
2022-10-18T19:59:59.091Z,99980.77
2022-10-18T20:02:31.678Z,99984.11
2022-10-18T20:05:03.986Z,99988.59
2022-10-18T20:07:35.107Z,99983.02
2022-10-18T20:10:06.547Z,99980.07
2022-10-18T20:12:37.533Z,99986.11
2022-10-18T20:15:09.913Z,99993.82
2022-10-18T20:17:40.628Z,99994.33
2022-10-18T20:20:13.300Z,99994.33
2022-10-18T20:22:44.209Z,99998.70
2022-10-18T20:25:15.165Z,100000.41
2022-10-18T20:27:46.092Z,100000.60
2022-10-18T20:30:16.938Z,100000.77
2022-10-18T20:32:47.633Z,100004.72
2022-10-18T20:35:18.734Z,100011.16
2022-10-18T20:37:49.864Z,100013.88
2022-10-18T20:40:20.946Z,100011.67
2022-10-18T20:42:54.309Z,100016.02
2022-10-18T20:45:26.104Z,100019.14
2022-10-18T20:47:57.730Z,100024.75
2022-10-18T20:50:28.406Z,100031.98
2022-10-18T20:52:59.617Z,100026.80
2022-10-18T20:55:31.533Z,100026.22
2022-10-18T20:58:02.221Z,100024.19
2022-10-18T21:00:33.058Z,100025.96
2022-10-18T21:03:04.544Z,100020.73
2022-10-18T21:05:35.456Z,100023.14
2022-10-18T21:08:06.540Z,100025.34
2022-10-18T21:10:37.222Z,100023.61
2022-10-18T21:13:07.891Z,100018.23
2022-10-18T21:15:38.715Z,100023.58
2022-10-18T21:18:09.550Z,100020.34
2022-10-18T21:20:40.290Z,100024.28
2022-10-18T21:23:10.989Z,100027.92
2022-10-18T21:25:47.291Z,100030.59
2022-10-18T21:28:18.789Z,100034.31
2022-10-18T21:30:49.486Z,100027.73
2022-10-18T21:33:20.153Z,100026.57
2022-10-18T21:35:50.965Z,100024.16
2022-10-18T21:38:21.617Z,100023.16
2022-10-18T21:40:52.338Z,100024.42
2022-10-18T21:43:23.016Z,100023.48
2022-10-18T21:46:00.085Z,100025.29
2022-10-18T21:48:30.902Z,100032.81
2022-10-18T21:51:05.785Z,100032.70
2022-10-18T21:53:37.362Z,100035.73
2022-10-18T21:56:10.414Z,100041.33
2022-10-18T21:58:41.946Z,100034.44
2022-10-18T22:01:15.386Z,100025.38
2022-10-18T22:03:47.296Z,100025.99
2022-10-18T22:06:19.260Z,100020.02
2022-10-18T22:08:52.833Z,100013.29
2022-10-18T22:11:24.319Z,100004.10
2022-10-18T22:13:55.164Z,100012.70
2022-10-18T22:16:26.394Z,100018.86
2022-10-18T22:19:00.860Z,100017.83
2022-10-18T22:21:32.021Z,100014.31
2022-10-18T22:24:05.696Z,100013.60
2022-10-18T22:26:38.474Z,100009.89
2022-10-18T22:29:11.753Z,100007.77
2022-10-18T22:31:45.181Z,100008.83
2022-10-18T22:34:18.828Z,100009.20
2022-10-18T22:36:49.936Z,100008.93
2022-10-18T22:39:20.927Z,100011.44
2022-10-18T22:41:55.994Z,100010.06
2022-10-18T22:44:27.060Z,100005.79
2022-10-18T22:46:57.705Z,100001.58
2022-10-18T22:49:29.896Z,100006.11
2022-10-18T22:52:00.585Z,100006.21
2022-10-18T22:54:31.181Z,100000.37
2022-10-18T22:57:01.869Z,99999.47
2022-10-18T22:59:32.903Z,100001.46
2022-10-18T23:02:04.023Z,100001.45
2022-10-18T23:04:34.708Z,99996.98
2022-10-18T23:07:05.370Z,99994.04
2022-10-18T23:09:36.542Z,100001.90
2022-10-18T23:12:07.717Z,100001.63
2022-10-18T23:14:38.348Z,99997.59
2022-10-18T23:17:08.989Z,99995.65
2022-10-18T23:19:39.619Z,99995.00
2022-10-18T23:22:10.364Z,99996.31
2022-10-18T23:24:41.162Z,99992.59
2022-10-18T23:27:11.770Z,99995.67
2022-10-18T23:29:42.435Z,99996.46
2022-10-18T23:32:13.103Z,99999.17
2022-10-18T23:34:43.764Z,99998.60
2022-10-18T23:37:14.492Z,100001.64
2022-10-18T23:39:45.162Z,100001.34
2022-10-18T23:42:15.960Z,100003.85
2022-10-18T23:44:46.699Z,100006.71
2022-10-18T23:47:17.744Z,100009.05
2022-10-18T23:49:48.480Z,100005.91
2022-10-18T23:52:19.119Z,100003.77
2022-10-18T23:54:50.404Z,100003.45
2022-10-18T23:57:21.042Z,100002.41
2022-10-18T23:59:51.740Z,100001.96
